Current | Forecast
Updated: 11:30 AM CEST on August 20, 2017
Observed at Paris / Charles De Gaulle, France
Temperature 18°C
Humidity 56%
Dew Point 9°C
Wind West at 11 km/h
Pressure 1026 hPa (Steady)
Conditions Scattered Clouds
Visibility 10.0 kilometers
UV 5 out of 16
Clouds Scattered Clouds (SCT) : 670 m
Yesterday's Maximum 22°C
Yesterday's Minimum 12°C approx.
Yesterday's Heating Degree Days 2 approx.
Sunrise6:46 AM CEST
Sunset8:53 PM CEST
Moon Rise4:58 AM CEST
Moon Set8:11 PM CEST
Moon PhaseMoon Phase
Waning Crescent
Raw METARMETAR LFPG 200930Z 27006KT 220V300 9999 SCT022 18/09 Q1026 NOSIG


Monday
. High: 66° F.
Tuesday
. High: 69° F.
Wednesday
. High: 62° F.
Thursday
. High: 60° F.
Friday
. High: 62° F.
Saturday
. High: 68° F.
Sunday
. High: 66° F.
Monday
. High: 68° F.

Units: English | Metric

Find the Weather for any City, State or Zipcode, or Country:

U.S. State List | Severe Weather | Tropical Storms | Ski Conditions
United States | Canada | Central America | South America | Asia | Europe | Australia | Africa | Islands

Weather Underground

© Copyright 2017
The Weather Company, LLC